createdAt,value
2019-05-15T00:02:10.815Z,2.00
2019-05-15T00:04:41.485Z,1.40
2019-05-15T00:07:10.993Z,2.10
2019-05-15T00:09:41.902Z,1.50
2019-05-15T00:12:12.446Z,1.80
2019-05-15T00:14:41.929Z,1.77
2019-05-15T00:17:13.040Z,1.87
2019-05-15T00:19:42.537Z,1.80
2019-05-15T00:22:12.025Z,1.60
2019-05-15T00:24:41.525Z,1.60
2019-05-15T00:27:11.010Z,1.60
2019-05-15T00:29:40.507Z,1.90
2019-05-15T00:32:10.020Z,1.80
2019-05-15T00:34:39.524Z,1.90
2019-05-15T00:37:09.801Z,1.70
2019-05-15T00:39:39.295Z,1.95
2019-05-15T00:42:09.750Z,1.92
2019-05-15T00:44:39.266Z,1.80
2019-05-15T00:47:10.532Z,2.00
2019-05-15T00:49:40.097Z,1.98
2019-05-15T00:52:12.134Z,1.70
2019-05-15T00:54:40.870Z,1.98
2019-05-15T00:57:10.350Z,1.90
2019-05-15T00:59:39.845Z,1.85
2019-05-15T01:02:09.341Z,1.70
2019-05-15T01:04:39.045Z,1.90
2019-05-15T01:07:08.572Z,1.90
2019-05-15T01:09:39.025Z,2.00
2019-05-15T01:12:09.108Z,2.02
2019-05-15T01:14:38.786Z,2.45
2019-05-15T01:17:09.140Z,2.20
2019-05-15T01:19:38.691Z,1.95
2019-05-15T01:22:08.836Z,1.90
2019-05-15T01:24:38.892Z,1.90
2019-05-15T01:27:09.105Z,1.80
2019-05-15T01:29:44.808Z,1.90
2019-05-15T01:32:10.830Z,1.90
2019-05-15T01:34:40.316Z,1.90
2019-05-15T01:37:09.806Z,2.20
2019-05-15T01:39:40.266Z,2.40
2019-05-15T01:42:09.768Z,1.60
2019-05-15T01:44:39.290Z,1.87
2019-05-15T01:47:08.807Z,1.92
2019-05-15T01:49:38.543Z,1.60
2019-05-15T01:52:08.170Z,2.00
2019-05-15T01:54:38.385Z,2.30
2019-05-15T01:57:09.310Z,2.10
2019-05-15T01:59:52.691Z,1.90
2019-05-15T02:02:10.165Z,1.80
2019-05-15T02:04:39.649Z,2.00
2019-05-15T02:07:09.140Z,2.40
2019-05-15T02:09:38.695Z,1.82
2019-05-15T02:12:08.721Z,1.65
2019-05-15T02:14:39.157Z,2.00
2019-05-15T02:17:08.831Z,2.10
2019-05-15T02:19:39.163Z,1.60
2019-05-15T02:22:08.809Z,1.70
2019-05-15T02:24:39.040Z,1.80
2019-05-15T02:27:09.075Z,1.60
2019-05-15T02:29:38.716Z,1.80
2019-05-15T02:32:10.209Z,1.60
2019-05-15T02:34:39.816Z,1.90
2019-05-15T02:37:09.471Z,1.90
2019-05-15T02:39:39.179Z,2.40
2019-05-15T02:42:09.858Z,1.90
2019-05-15T02:44:40.276Z,1.80
2019-05-15T02:47:09.875Z,2.00
2019-05-15T02:49:39.764Z,1.77
2019-05-15T02:52:10.009Z,1.80
2019-05-15T02:54:40.225Z,1.60
2019-05-15T02:57:10.070Z,1.60
2019-05-15T02:59:39.960Z,1.90
2019-05-15T03:02:10.362Z,1.70
2019-05-15T03:04:40.317Z,1.80
2019-05-15T03:07:09.953Z,1.72
2019-05-15T03:09:40.346Z,1.80
2019-05-15T03:12:09.851Z,1.90
2019-05-15T03:14:40.047Z,1.70
2019-05-15T03:17:09.991Z,1.90
2019-05-15T03:19:39.683Z,1.90
2019-05-15T03:22:09.972Z,1.70
2019-05-15T03:24:39.915Z,1.50
2019-05-15T03:27:10.477Z,2.10
2019-05-15T03:29:40.570Z,1.90
2019-05-15T03:32:25.231Z,1.80
2019-05-15T03:34:47.553Z,1.97
2019-05-15T03:37:13.154Z,2.00
2019-05-15T03:39:46.507Z,2.00
2019-05-15T03:42:14.180Z,2.10
2019-05-15T03:44:43.686Z,2.10
2019-05-15T03:47:13.287Z,2.17
2019-05-15T03:49:42.774Z,1.80
2019-05-15T03:52:12.276Z,2.40
2019-05-15T03:54:41.768Z,2.40
2019-05-15T03:57:11.264Z,2.20
2019-05-15T03:59:40.748Z,1.80
2019-05-15T04:02:11.219Z,2.00
2019-05-15T04:04:40.710Z,2.20
2019-05-15T04:07:10.337Z,2.40
2019-05-15T04:09:40.901Z,2.10
2019-05-15T04:12:10.405Z,1.92
2019-05-15T04:14:39.964Z,2.50
2019-05-15T04:17:09.548Z,2.00
2019-05-15T04:19:40.012Z,2.50
2019-05-15T04:22:09.642Z,2.12
2019-05-15T04:24:40.280Z,2.15
2019-05-15T04:27:10.837Z,2.10
2019-05-15T04:29:40.572Z,2.27
2019-05-15T04:32:10.752Z,1.80
2019-05-15T04:34:40.632Z,1.93
2019-05-15T04:37:10.111Z,1.80
2019-05-15T04:39:40.152Z,1.80
2019-05-15T04:42:09.727Z,1.80
2019-05-15T04:44:39.666Z,2.07
2019-05-15T04:47:09.857Z,2.67
2019-05-15T04:49:40.435Z,2.60
2019-05-15T04:52:10.539Z,2.87
2019-05-15T04:54:40.533Z,2.20
2019-05-15T04:57:10.155Z,2.47
2019-05-15T04:59:39.631Z,2.30
2019-05-15T05:02:17.405Z,2.30
2019-05-15T05:04:40.351Z,2.50
2019-05-15T05:07:09.909Z,2.53
2019-05-15T05:09:39.401Z,2.90
2019-05-15T05:12:08.903Z,2.50
2019-05-15T05:14:39.122Z,2.33
2019-05-15T05:17:09.458Z,2.40
2019-05-15T05:19:40.227Z,2.50
2019-05-15T05:22:10.787Z,2.52
2019-05-15T05:24:40.309Z,2.52
2019-05-15T05:27:09.831Z,2.40
2019-05-15T05:29:39.400Z,2.42
2019-05-15T05:32:09.307Z,2.35
2019-05-15T05:34:39.271Z,2.20
2019-05-15T05:37:08.755Z,2.40
2019-05-15T05:39:39.477Z,2.20
2019-05-15T05:42:09.142Z,2.27
2019-05-15T05:44:42.464Z,2.33
2019-05-15T05:47:10.813Z,2.30
2019-05-15T05:49:40.306Z,2.40
2019-05-15T05:52:09.816Z,2.40
2019-05-15T05:54:39.330Z,2.80
2019-05-15T05:57:09.191Z,2.33
2019-05-15T05:59:38.863Z,2.40
2019-05-15T06:02:08.461Z,2.57
2019-05-15T06:04:38.497Z,2.50
2019-05-15T06:07:13.779Z,2.30
2019-05-15T06:09:39.278Z,2.37
2019-05-15T06:12:08.777Z,2.20
2019-05-15T06:14:38.278Z,2.47
2019-05-15T06:17:08.417Z,2.30
2019-05-15T06:19:38.630Z,2.40
2019-05-15T06:22:08.774Z,1.90
2019-05-15T06:24:38.385Z,2.20
2019-05-15T06:27:08.307Z,2.10
2019-05-15T06:29:37.973Z,2.20
2019-05-15T06:32:07.999Z,2.57
2019-05-15T06:34:38.086Z,2.37
2019-05-15T06:37:08.328Z,1.90
2019-05-15T06:39:39.582Z,1.90
2019-05-15T06:42:09.089Z,1.80
2019-05-15T06:44:38.916Z,2.70
2019-05-15T06:47:08.478Z,2.40
2019-05-15T06:49:37.991Z,2.10
2019-05-15T06:52:08.829Z,2.30
2019-05-15T06:54:38.466Z,2.00
2019-05-15T06:57:09.094Z,1.60
2019-05-15T06:59:39.067Z,1.70
2019-05-15T07:02:08.561Z,1.95
2019-05-15T07:04:38.515Z,1.87
2019-05-15T07:07:11.040Z,2.25
2019-05-15T07:09:39.255Z,1.90
2019-05-15T07:12:10.439Z,1.60
2019-05-15T07:14:40.425Z,1.70
2019-05-15T07:17:09.950Z,1.60
2019-05-15T07:19:39.539Z,1.60
2019-05-15T07:22:09.443Z,1.80
2019-05-15T07:24:39.024Z,1.22
2019-05-15T07:27:09.509Z,1.67
2019-05-15T07:29:39.022Z,1.60
2019-05-15T07:32:08.542Z,1.40
2019-05-15T07:34:38.110Z,1.40
2019-05-15T07:37:09.766Z,1.55
2019-05-15T07:39:38.770Z,1.50
2019-05-15T07:42:08.663Z,1.30
2019-05-15T07:44:39.012Z,1.10
2019-05-15T07:47:08.972Z,1.40
2019-05-15T07:49:38.982Z,1.30
2019-05-15T07:52:08.824Z,1.20
2019-05-15T07:54:38.499Z,1.00
2019-05-15T07:57:08.983Z,1.20
2019-05-15T07:59:38.818Z,1.30
2019-05-15T08:02:08.578Z,1.10
2019-05-15T08:04:38.232Z,1.27
2019-05-15T08:07:09.154Z,1.00
2019-05-15T08:09:39.190Z,1.40
2019-05-15T08:12:08.847Z,1.70
2019-05-15T08:14:38.860Z,1.40
2019-05-15T08:17:08.804Z,1.30
2019-05-15T08:19:38.611Z,1.60
2019-05-15T08:22:09.010Z,1.40
2019-05-15T08:24:39.269Z,1.80
2019-05-15T08:27:09.144Z,1.50
2019-05-15T08:29:38.634Z,1.55
2019-05-15T08:32:08.476Z,1.70
2019-05-15T08:34:39.017Z,1.50
2019-05-15T08:37:08.589Z,1.40
2019-05-15T08:39:38.279Z,1.87
2019-05-15T08:42:08.049Z,1.40
2019-05-15T08:44:38.699Z,1.80
2019-05-15T08:47:08.396Z,2.30
2019-05-15T08:49:40.898Z,2.12
2019-05-15T08:52:10.121Z,2.50
2019-05-15T08:54:41.071Z,2.40
2019-05-15T08:57:11.628Z,2.30
2019-05-15T08:59:41.195Z,1.90
2019-05-15T09:02:10.711Z,2.10
2019-05-15T09:04:40.214Z,2.43
2019-05-15T09:07:09.727Z,2.10
2019-05-15T09:09:39.223Z,2.50
2019-05-15T09:12:08.752Z,2.30
2019-05-15T09:14:38.312Z,2.20
2019-05-15T09:17:08.713Z,2.72
2019-05-15T09:19:38.770Z,2.30
2019-05-15T09:22:09.170Z,2.30
2019-05-15T09:24:38.811Z,2.40
2019-05-15T09:27:09.829Z,2.20
2019-05-15T09:29:40.598Z,2.02
2019-05-15T09:32:12.433Z,1.80
2019-05-15T09:34:50.732Z,2.10
2019-05-15T09:37:12.597Z,2.10
2019-05-15T09:39:42.103Z,2.00
2019-05-15T09:42:11.627Z,2.40
2019-05-15T09:44:41.136Z,2.10
2019-05-15T09:47:10.671Z,1.85
2019-05-15T09:49:40.164Z,2.00
2019-05-15T09:52:09.690Z,2.30
2019-05-15T09:54:40.197Z,1.70
2019-05-15T09:57:10.989Z,1.87
2019-05-15T09:59:40.719Z,1.70
2019-05-15T10:02:10.414Z,1.53
2019-05-15T10:04:40.794Z,1.98
2019-05-15T10:07:10.347Z,1.75
2019-05-15T10:09:39.846Z,1.50
2019-05-15T10:12:09.457Z,1.80
2019-05-15T10:14:39.054Z,1.87
2019-05-15T10:17:09.245Z,1.80
2019-05-15T10:19:38.855Z,1.60
2019-05-15T10:22:09.742Z,1.65
2019-05-15T10:24:39.308Z,1.70
2019-05-15T10:27:09.288Z,1.35
2019-05-15T10:29:38.917Z,1.50
2019-05-15T10:32:08.700Z,1.53
2019-05-15T10:34:38.767Z,1.40
2019-05-15T10:37:08.566Z,1.60
2019-05-15T10:39:38.547Z,1.60
2019-05-15T10:42:09.953Z,1.50
2019-05-15T10:44:39.667Z,1.60
2019-05-15T10:47:11.024Z,1.50
2019-05-15T10:49:40.520Z,1.30
2019-05-15T10:52:11.628Z,1.70
2019-05-15T10:54:41.302Z,1.60
2019-05-15T10:57:10.815Z,1.43
2019-05-15T10:59:40.793Z,1.50
2019-05-15T11:02:10.416Z,1.60
2019-05-15T11:04:39.935Z,1.30
2019-05-15T11:07:09.883Z,1.40
2019-05-15T11:09:40.593Z,1.37
2019-05-15T11:12:10.326Z,1.30
2019-05-15T11:14:39.843Z,1.20
2019-05-15T11:17:09.380Z,1.17
2019-05-15T11:19:40.489Z,1.17
2019-05-15T11:22:10.273Z,1.23
2019-05-15T11:24:39.804Z,1.30
2019-05-15T11:27:10.137Z,1.30
2019-05-15T11:29:39.810Z,1.20
2019-05-15T11:32:09.335Z,1.05
2019-05-15T11:34:38.857Z,1.20
2019-05-15T11:37:08.360Z,1.32
2019-05-15T11:39:45.835Z,1.10
2019-05-15T11:42:10.214Z,1.10
2019-05-15T11:44:39.804Z,1.20
2019-05-15T11:47:09.386Z,1.27
2019-05-15T11:49:38.972Z,1.23
2019-05-15T11:52:08.791Z,1.00
2019-05-15T11:54:38.680Z,1.30
2019-05-15T11:57:08.663Z,1.10
2019-05-15T11:59:44.818Z,1.12
2019-05-15T12:02:09.497Z,1.30
2019-05-15T12:04:39.004Z,0.90
2019-05-15T12:07:08.781Z,1.50
2019-05-15T12:09:38.834Z,1.30
2019-05-15T12:12:08.879Z,1.17
2019-05-15T12:14:38.949Z,1.00
2019-05-15T12:17:15.037Z,1.10
2019-05-15T12:19:39.863Z,1.30
2019-05-15T12:22:09.363Z,1.10
2019-05-15T12:24:40.665Z,1.00
2019-05-15T12:29:41.534Z,1.37
2019-05-15T12:34:42.252Z,1.30
2019-05-15T12:37:11.898Z,1.30
2019-05-15T12:39:23.744Z,1.20
2019-05-15T12:39:41.420Z,1.20
2019-05-15T12:59:49.451Z,1.50
2019-05-15T13:02:18.962Z,1.15
2019-05-15T13:04:49.375Z,1.27
2019-05-15T13:07:19.991Z,1.10
2019-05-15T13:09:49.587Z,1.50
2019-05-15T13:12:19.109Z,1.25
2019-05-15T13:14:48.617Z,1.40
2019-05-15T13:17:18.418Z,1.50
2019-05-15T13:19:48.372Z,1.40
2019-05-15T13:22:24.482Z,1.10
2019-05-15T13:24:50.254Z,1.40
2019-05-15T13:27:19.826Z,1.50
2019-05-15T13:29:49.459Z,1.30
2019-05-15T13:32:19.024Z,1.50
2019-05-15T13:34:49.056Z,1.50
2019-05-15T13:37:26.832Z,1.23
2019-05-15T13:39:49.835Z,1.10
2019-05-15T13:42:19.330Z,1.30
2019-05-15T13:44:48.839Z,1.10
2019-05-15T13:47:18.357Z,1.30
2019-05-15T13:49:48.149Z,1.20
2019-05-15T13:52:18.798Z,1.20
2019-05-15T13:54:48.491Z,1.37
2019-05-15T13:57:18.182Z,1.27
2019-05-15T13:59:48.346Z,1.50
2019-05-15T14:02:18.699Z,1.40
2019-05-15T14:04:49.348Z,1.40
2019-05-15T14:07:19.347Z,1.30
2019-05-15T14:09:49.553Z,1.20
2019-05-15T14:12:19.305Z,1.35
2019-05-15T14:14:49.792Z,1.30
2019-05-15T14:17:19.317Z,1.12
2019-05-15T14:19:48.830Z,1.30
2019-05-15T14:22:18.322Z,1.20
2019-05-15T14:24:48.930Z,1.20
2019-05-15T14:27:19.508Z,1.10
2019-05-15T14:29:49.222Z,1.20
2019-05-15T14:32:34.010Z,1.22
2019-05-15T14:34:51.055Z,1.17
2019-05-15T14:37:20.781Z,1.20
2019-05-15T14:39:52.335Z,1.37
2019-05-15T14:42:21.800Z,1.35
2019-05-15T14:44:51.587Z,1.30
2019-05-15T14:47:21.124Z,1.40
2019-05-15T14:49:50.640Z,1.17
2019-05-15T14:52:20.211Z,1.10
2019-05-15T14:54:49.746Z,1.20
2019-05-15T14:57:19.269Z,1.20
2019-05-15T14:59:49.004Z,0.93
2019-05-15T15:02:19.031Z,1.40
2019-05-15T15:04:48.779Z,1.40
2019-05-15T15:07:18.839Z,1.30
2019-05-15T15:09:48.556Z,1.20
2019-05-15T15:12:18.939Z,1.10
2019-05-15T15:14:48.678Z,2.00
2019-05-15T15:17:19.594Z,3.45
2019-05-15T15:19:52.055Z,1.30
2019-05-15T15:22:21.624Z,1.50
2019-05-15T15:24:51.082Z,1.20
2019-05-15T15:27:20.635Z,1.17
2019-05-15T15:29:50.176Z,1.40
2019-05-15T15:32:19.691Z,1.22
2019-05-15T15:34:49.253Z,1.43
2019-05-15T15:37:18.783Z,1.50
2019-05-15T15:39:48.321Z,1.73
2019-05-15T15:42:17.980Z,1.73
2019-05-15T15:44:48.860Z,1.90
2019-05-15T15:47:18.426Z,1.10
2019-05-15T15:49:48.034Z,1.30
2019-05-15T15:52:18.125Z,1.40
2019-05-15T15:54:47.828Z,1.10
2019-05-15T15:57:19.195Z,1.20
2019-05-15T15:59:49.123Z,1.20
2019-05-15T16:02:18.821Z,1.10
2019-05-15T16:04:48.483Z,1.20
2019-05-15T16:07:18.026Z,1.10
2019-05-15T16:09:48.339Z,1.13
2019-05-15T16:12:18.618Z,1.30
2019-05-15T16:14:48.813Z,1.30
2019-05-15T16:17:19.387Z,1.00
2019-05-15T16:19:49.216Z,1.50
2019-05-15T16:22:19.062Z,1.15
2019-05-15T16:24:49.254Z,1.07
2019-05-15T16:27:18.786Z,1.10
2019-05-15T16:29:48.311Z,1.20
2019-05-15T16:32:21.088Z,1.13
2019-05-15T16:34:49.078Z,1.10
2019-05-15T16:37:18.877Z,1.35
2019-05-15T16:39:48.829Z,1.30
2019-05-15T16:42:18.310Z,1.20
2019-05-15T16:44:48.978Z,1.10
2019-05-15T16:47:18.729Z,1.50
2019-05-15T16:49:49.154Z,1.10
2019-05-15T16:52:18.657Z,1.10
2019-05-15T16:54:48.958Z,1.40
2019-05-15T16:57:18.669Z,1.90
2019-05-15T16:59:48.219Z,1.02
2019-05-15T17:02:18.886Z,1.55
2019-05-15T17:04:48.919Z,1.40
2019-05-15T17:07:18.473Z,1.30
2019-05-15T17:09:48.181Z,1.20
2019-05-15T17:12:17.680Z,1.30
2019-05-15T17:14:48.707Z,1.10
2019-05-15T17:17:18.517Z,1.10
2019-05-15T17:19:48.505Z,1.50
2019-05-15T17:22:18.501Z,1.00
2019-05-15T17:24:48.827Z,1.50
2019-05-15T17:27:18.689Z,1.50
2019-05-15T17:29:48.987Z,1.45
2019-05-15T17:32:18.690Z,2.10
2019-05-15T17:34:48.818Z,1.40
2019-05-15T17:37:18.391Z,1.30
2019-05-15T17:39:48.570Z,1.10
2019-05-15T17:42:18.365Z,1.37
2019-05-15T17:44:48.748Z,1.47
2019-05-15T17:47:18.390Z,1.10
2019-05-15T17:49:48.211Z,1.40
2019-05-15T17:52:18.360Z,1.30
2019-05-15T17:54:49.150Z,1.00
2019-05-15T17:57:19.473Z,1.60
2019-05-15T17:59:49.116Z,1.40
2019-05-15T18:02:19.087Z,1.40
2019-05-15T18:04:49.635Z,1.30
2019-05-15T18:07:19.129Z,1.47
2019-05-15T18:09:54.059Z,1.30
2019-05-15T18:12:20.012Z,1.15
2019-05-15T18:14:49.500Z,1.30
2019-05-15T18:17:19.019Z,1.30
2019-05-15T18:19:48.761Z,1.30
2019-05-15T18:22:19.271Z,1.05
2019-05-15T18:24:49.055Z,1.30
2019-05-15T18:27:18.717Z,1.40
2019-05-15T18:29:48.221Z,1.00
2019-05-15T18:32:18.963Z,1.20
2019-05-15T18:34:48.978Z,1.20
2019-05-15T18:37:19.204Z,1.20
2019-05-15T18:40:02.166Z,1.40
2019-05-15T18:42:20.201Z,1.10
2019-05-15T18:44:49.724Z,1.20
2019-05-15T18:47:19.236Z,1.10
2019-05-15T18:50:03.701Z,1.20
2019-05-15T18:52:20.983Z,1.40
2019-05-15T18:54:50.667Z,1.40
2019-05-15T18:57:20.171Z,1.45
2019-05-15T18:59:49.675Z,1.40
2019-05-15T19:02:19.300Z,1.50
2019-05-15T19:04:49.852Z,1.20
2019-05-15T19:07:19.348Z,0.90
2019-05-15T19:09:48.866Z,1.00
2019-05-15T19:12:19.047Z,1.20
2019-05-15T19:14:49.347Z,1.10
2019-05-15T19:17:19.084Z,1.30
2019-05-15T19:19:48.681Z,1.10
2019-05-15T19:22:19.308Z,2.00
2019-05-15T19:24:49.051Z,1.10
2019-05-15T19:27:18.844Z,0.98
2019-05-15T19:29:48.499Z,1.02
2019-05-15T19:32:18.001Z,1.25
2019-05-15T19:34:48.327Z,0.90
2019-05-15T19:37:18.486Z,1.27
2019-05-15T19:39:48.142Z,1.20
2019-05-15T19:42:18.265Z,1.00
2019-05-15T19:44:48.896Z,1.00
2019-05-15T19:47:18.687Z,1.30
2019-05-15T19:49:48.760Z,1.40
2019-05-15T19:52:18.266Z,1.10
2019-05-15T19:54:48.485Z,1.15
2019-05-15T19:57:18.704Z,1.00
2019-05-15T19:59:48.947Z,0.97
2019-05-15T20:02:18.621Z,1.00
2019-05-15T20:04:49.116Z,1.00
2019-05-15T20:07:19.635Z,1.10
2019-05-15T20:09:49.148Z,1.10
2019-05-15T20:12:18.761Z,0.90
2019-05-15T20:14:48.876Z,1.10
2019-05-15T20:17:18.503Z,1.02
2019-05-15T20:19:48.858Z,1.00
2019-05-15T20:22:18.832Z,0.90
2019-05-15T20:24:48.533Z,1.22
2019-05-15T20:27:18.774Z,0.90
2019-05-15T20:29:48.725Z,1.17
2019-05-15T20:32:18.516Z,0.85
2019-05-15T20:34:48.401Z,1.20
2019-05-15T20:37:19.082Z,1.10
2019-05-15T20:39:49.214Z,1.10
2019-05-15T20:42:18.955Z,1.00
2019-05-15T20:44:48.751Z,1.10
2019-05-15T20:47:18.759Z,1.60
2019-05-15T20:49:48.711Z,1.20
2019-05-15T20:52:21.501Z,1.00
2019-05-15T20:54:49.417Z,1.30
2019-05-15T20:57:18.899Z,1.10
2019-05-15T20:59:48.423Z,1.10
2019-05-15T21:02:18.742Z,1.10
2019-05-15T21:04:48.327Z,0.90
2019-05-15T21:07:27.586Z,0.88
2019-05-15T21:09:49.053Z,1.10
2019-05-15T21:12:18.578Z,1.12
2019-05-15T21:14:48.431Z,1.10
2019-05-15T21:17:19.880Z,0.90
2019-05-15T21:19:49.645Z,0.90
2019-05-15T21:22:20.053Z,1.20
2019-05-15T21:24:49.715Z,1.00
2019-05-15T21:27:24.181Z,1.00
2019-05-15T21:29:50.494Z,1.10
2019-05-15T21:32:20.276Z,1.00
2019-05-15T21:34:49.782Z,0.90
2019-05-15T21:37:19.277Z,1.40
2019-05-15T21:39:48.781Z,1.60
2019-05-15T21:42:19.262Z,1.00
2019-05-15T21:44:49.005Z,1.02
2019-05-15T21:47:18.897Z,1.20
2019-05-15T21:49:48.587Z,1.10
2019-05-15T21:52:20.493Z,1.00
2019-05-15T21:54:50.504Z,1.00
2019-05-15T21:57:32.919Z,0.90
2019-05-15T21:59:51.888Z,1.07
2019-05-15T22:02:21.381Z,1.00
2019-05-15T22:04:55.784Z,1.17
2019-05-15T22:07:22.372Z,1.10
2019-05-15T22:09:51.940Z,1.20
2019-05-15T22:12:21.439Z,1.20
2019-05-15T22:14:51.020Z,1.22
2019-05-15T22:17:20.672Z,1.20
2019-05-15T22:19:50.250Z,1.40
2019-05-15T22:22:19.720Z,1.20
2019-05-15T22:24:49.292Z,1.20
2019-05-15T22:27:21.022Z,1.07
2019-05-15T22:29:49.978Z,1.30
2019-05-15T22:32:19.669Z,0.90
2019-05-15T22:35:05.723Z,1.30
2019-05-15T22:37:21.654Z,1.00
2019-05-15T22:39:51.343Z,1.10
2019-05-15T22:42:20.833Z,1.00
2019-05-15T22:44:51.314Z,1.07
2019-05-15T22:47:20.822Z,1.02
2019-05-15T22:49:50.310Z,1.20
2019-05-15T22:52:20.087Z,1.20
2019-05-15T22:54:49.590Z,1.20
2019-05-15T22:57:19.091Z,1.10
2019-05-15T22:59:48.811Z,1.10
2019-05-15T23:02:18.404Z,1.20
2019-05-15T23:04:47.925Z,1.10
2019-05-15T23:07:18.916Z,1.20
2019-05-15T23:09:49.055Z,1.20
2019-05-15T23:12:18.656Z,1.00
2019-05-15T23:14:48.589Z,0.98
2019-05-15T23:17:18.152Z,1.00
2019-05-15T23:19:48.626Z,1.05
2019-05-15T23:22:18.628Z,1.10
2019-05-15T23:24:48.435Z,1.20
2019-05-15T23:27:18.203Z,1.00
2019-05-15T23:29:49.127Z,1.10
2019-05-15T23:32:18.823Z,1.00
2019-05-15T23:34:49.324Z,0.90
2019-05-15T23:37:19.833Z,1.00
2019-05-15T23:39:49.340Z,0.90
2019-05-15T23:42:18.856Z,1.20
2019-05-15T23:44:48.776Z,1.07
2019-05-15T23:47:18.383Z,1.07
2019-05-15T23:49:48.528Z,0.80
2019-05-15T23:52:18.068Z,1.13
2019-05-15T23:54:47.561Z,1.20
2019-05-15T23:57:18.022Z,1.20
2019-05-15T23:59:47.822Z,0.90
